Airfield :
LOGIN :

Register | Disclaimer

   EN    FR    IT 

 










Legend :    VFR   Marginal VFR   IFR   Intensive IFR   Very Intensive IFR
Visi :
Ceiling :
>= 8 km
>= 3000ft
5 to 8 km
1000 to 3000 ft
1500m to 5 km
500 to 1000 ft
800 to 1500m
200 to 500 ft
< 800m
< 200 ft
Symbols :   Thunderstorms  Fog  Heavy snow  Heavy precipitations  Wind > 20 kt
SIGMETs :     Misc.  Thunderstorms  Icing  Turbulence  Mountain Waves  Volcanic Ashes







- Airport Elevation : 1411 ft
- IATA code : GVA


LSGG - Genève Cointrin

CURRENT METAR :
  • 281250Z 23013KT 9999 FEW040 SCT320 25/14 Q1017 NOSIG

EXPIRED METARs :
  • 281220Z 21014KT 180V240 9999 FEW037 SCT320 25/13 Q1017 NOSIG
  • 281150Z 22016KT 9999 FEW037 SCT320 25/14 Q1017 NOSIG
  • 281120Z 21013KT 9999 FEW037 24/13 Q1017 NOSIG
  • 281050Z 21013KT 180V240 9999 FEW035 24/13 Q1017 NOSIG
  • 281020Z 23011KT 9999 FEW030 SCT180 23/13 Q1017 NOSIG

TAF TAF LSGG
Valid from the 28 at 09:00 until the 29 at 15:00 UTC


280825Z 2809/2915 24010KT 9999 FEW040 TX27/2815Z TN15/2904Z TX29/2915Z
BECMG 2817/2819 VRB03KT CAVOK
ATIS : +41 22 417 40 81
No reported NOTAMs for that airfield.



MET'MAP, your aeronautical weather chart ! - Copyright ORBIFLY December 2007 - Disclaimer

ORBIFLY MET'MAP TEAM :

Programming & Development : Alexandra Zaïnal
Concept & Development : Baudouin d'Aumeries
Co-Development & Prog : Marc-Olivier Méhu
Technical & hardware support : Manuel Goepfert

Contact : metmap@orbifly.com




SOURCES & CREDITS :

   NOAA